Aeroporto :
LOGIN :

Iscrizione | Disclaimer

   EN    FR    IT 

 










Sommario :    VFR   VFR Marginale   IFR   IFR Intensivo   IFR Molto Intensivo
Visibilità : 
Base nubi : 
>= 8 km
>= 3000ft
5 / 8 km
1000 / 3000 ft
1500m / 5 km
500 / 1000 ft
800 / 1500m
200 / 500 ft
< 800m
< 200 ft
Simboli :   Temporali  Nebbia  Neve Forte  Precipitazioni Forti  Vento > 20 kt
SIGMETs :   Varie  Temporali  Ghiacco  Turbolenza  Onda orograficha  Ceneri Vulcaniche






- Altitudine del aeroporto : 16 ft
- Codice IATA : LPX


EVLA - Liepaja

ULTIMO METAR :
  • 251320Z AUTO 19011KT 170V230 9999 NCD 14/10 Q1010

METARs OBSOLETI :
  • 251250Z AUTO 19011KT 160V220 9999 NCD 15/10 Q1010
  • 251220Z AUTO 18008KT 150V210 9999 BKN040/// 14/11 Q1010
  • 251150Z AUTO 18009KT 150V210 9999 BKN044/// 14/11 Q1010
  • 251120Z AUTO 17008KT 130V200 9999 FEW051/// 14/10 Q1010
  • 251050Z AUTO 16009KT 130V200 9999 SCT044/// 14/10 Q1011

TAF TAF EVLA
Valido dal 25 a 12 ore il 26 a 12 ore UTC


251103Z 2512/2612 17007KT 9999 SCT020
TEMPO 2600/2603 BKN004
BECMG 2603/2605 BKN012



MetMap, La meteo Aeronautica in un colpo d'occhio ! - Copyright ORBIFLY Dicembre 2007 - Disclaimer

ORBIFLY MET'MAP TEAM :

Programmazione e sviluppo : Alexandra Zaïnal
Concezione : Baudouin d'Aumeries
Aiuto per la programmazione : Marc-Olivier Méhu
Supporto tecnico e logistico : Manuel Goepfert
Aiuto per la traduzione : Arnaldo La Scala

Contatto : metmap@orbifly.com




FONTI E CREDITI :

   NOAA